Saint Charles, Louisiana
Current Conditions -  °F | °C
As of 6:47 PM on Monday 22 Dec 2014 (Local Time) from KHUM Reporting Station
Broken Clouds Broken Clouds  
Wind Chill: 68°   Ceiling: 800
Heat Index: 68°   Visibility: 7mi
Dew Point: 66°   Wind: 7mph
Humidity: 94%   Direction: 180°S
Pressure: 29.73"   Gusts: NA
Location:  29.7195°N, 90.5441°W
Report Text: KHUM 230047Z 18006KT 7SM BKN008 20/19 A2973 RMK RY12/30 CLSD LAST
Loading
Personal Weather Stations






























Interactive Weather Map New forecast layout! Learn more

10-Day Weather Forecast

Advertisements
Track Severe Weather on mobile